createdAt,value
2019-03-18T00:01:07.487Z,96296.95
2019-03-18T00:02:14.727Z,96305.56
2019-03-18T00:03:21.937Z,96299.59
2019-03-18T00:04:29.146Z,96307.86
2019-03-18T00:05:37.287Z,96310.88
2019-03-18T00:06:44.527Z,96303.63
2019-03-18T00:07:51.753Z,96301.98
2019-03-18T00:08:58.964Z,96302.35
2019-03-18T00:10:06.787Z,96297.75
2019-03-18T00:11:13.998Z,96298.20
2019-03-18T00:12:21.224Z,96305.16
2019-03-18T00:13:28.434Z,96302.58
2019-03-18T00:14:35.649Z,96316.33
2019-03-18T00:15:42.855Z,96306.97
2019-03-18T00:16:50.037Z,96300.17
2019-03-18T00:17:58.311Z,96306.22
2019-03-18T00:19:05.538Z,96305.84
2019-03-18T00:20:13.939Z,96308.89
2019-03-18T00:21:21.189Z,96299.53
2019-03-18T00:22:28.386Z,96303.84
2019-03-18T00:23:35.596Z,96302.55
2019-03-18T00:24:42.931Z,96293.57
2019-03-18T00:25:50.122Z,96304.75
2019-03-18T00:26:57.317Z,96295.84
2019-03-18T00:28:05.577Z,96303.91
2019-03-18T00:29:12.773Z,96298.41
2019-03-18T00:30:21.283Z,96297.58
2019-03-18T00:31:28.470Z,96296.82
2019-03-18T00:32:35.726Z,96295.99
2019-03-18T00:33:42.953Z,96296.07
2019-03-18T00:34:50.148Z,96300.00
2019-03-18T00:35:57.388Z,96309.06
2019-03-18T00:37:04.583Z,96314.75
2019-03-18T00:38:11.813Z,96316.95
2019-03-18T00:39:20.009Z,96319.13
2019-03-18T00:40:27.205Z,96306.30
2019-03-18T00:41:34.431Z,96307.66
2019-03-18T00:42:41.614Z,96305.17
2019-03-18T00:43:48.813Z,96303.81
2019-03-18T00:44:56.051Z,96305.17
2019-03-18T00:46:03.250Z,96315.06
2019-03-18T00:47:10.477Z,96304.87
2019-03-18T00:48:17.654Z,96308.80
2019-03-18T00:49:24.903Z,96303.29
2019-03-18T00:50:32.105Z,96311.55
2019-03-18T00:51:39.299Z,96309.89
2019-03-18T00:52:46.615Z,96307.40
2019-03-18T00:53:53.825Z,96312.98
2019-03-18T00:55:01.024Z,96306.19
2019-03-18T00:56:09.298Z,96301.97
2019-03-18T00:57:16.647Z,96308.83
2019-03-18T00:58:24.307Z,96301.59
2019-03-18T00:59:32.580Z,96298.56
2019-03-18T01:00:39.776Z,96300.83
2019-03-18T01:01:47.017Z,96299.55
2019-03-18T01:02:54.228Z,96297.89
2019-03-18T01:04:01.439Z,96303.93
2019-03-18T01:05:09.402Z,96292.84
2019-03-18T01:06:16.594Z,96301.92
2019-03-18T01:07:23.819Z,96305.77
2019-03-18T01:08:31.051Z,96312.64
2019-03-18T01:09:38.242Z,96307.95
2019-03-18T01:10:45.453Z,96308.41
2019-03-18T01:11:52.740Z,96309.31
2019-03-18T01:12:59.948Z,96305.09
2019-03-18T01:14:07.159Z,96299.51
2019-03-18T01:15:27.318Z,96298.23
2019-03-18T01:16:26.096Z,96296.49
2019-03-18T01:17:33.280Z,96291.44
2019-03-18T01:18:40.549Z,96291.44
2019-03-18T01:19:48.360Z,96304.27
2019-03-18T01:20:55.558Z,96303.43
2019-03-18T01:22:02.750Z,96300.87
2019-03-18T01:23:09.946Z,96309.02
2019-03-18T01:24:17.156Z,96314.98
2019-03-18T01:25:24.397Z,96319.73
2019-03-18T01:26:31.594Z,96317.99
2019-03-18T01:27:38.836Z,96316.78
2019-03-18T01:28:46.044Z,96321.39
2019-03-18T01:29:53.240Z,96314.22
2019-03-18T01:31:00.465Z,96317.23
2019-03-18T01:32:07.676Z,96322.38
2019-03-18T01:33:14.886Z,96319.35
2019-03-18T01:34:22.068Z,96322.45
2019-03-18T01:35:29.293Z,96321.23
2019-03-18T01:36:36.535Z,96320.97
2019-03-18T01:37:43.745Z,96321.04
2019-03-18T01:38:50.959Z,96325.34
2019-03-18T01:39:58.228Z,96326.77
2019-03-18T01:41:05.737Z,96324.66
2019-03-18T01:42:12.938Z,96334.54
2019-03-18T01:43:20.114Z,96321.78
2019-03-18T01:44:27.311Z,96324.35
2019-03-18T01:45:40.592Z,96323.45
2019-03-18T01:46:43.516Z,96322.16
2019-03-18T01:47:50.701Z,96323.90
2019-03-18T01:48:57.893Z,96321.34
2019-03-18T01:50:05.374Z,96326.47
2019-03-18T01:51:12.629Z,96325.18
2019-03-18T01:52:20.111Z,96318.84
2019-03-18T01:53:27.319Z,96315.45
2019-03-18T01:54:34.500Z,96312.50
2019-03-18T01:55:41.754Z,96310.02
2019-03-18T01:56:48.950Z,96318.54
2019-03-18T01:57:56.175Z,96314.34
2019-03-18T01:59:03.384Z,96327.63
2019-03-18T02:00:11.006Z,96319.55
2019-03-18T02:01:18.215Z,96314.49
2019-03-18T02:02:25.440Z,96323.92
2019-03-18T02:03:32.678Z,96322.27
2019-03-18T02:04:39.861Z,96326.48
2019-03-18T02:05:47.071Z,96333.73
2019-03-18T02:06:54.267Z,96329.50
2019-03-18T02:08:01.463Z,96342.33
2019-03-18T02:09:08.943Z,96347.52
2019-03-18T02:10:16.172Z,96357.33
2019-03-18T02:11:23.365Z,96352.20
2019-03-18T02:12:30.569Z,96360.80
2019-03-18T02:13:37.774Z,96358.61
2019-03-18T02:14:44.995Z,96359.82
2019-03-18T02:15:53.495Z,96359.44
2019-03-18T02:17:01.114Z,96366.69
2019-03-18T02:18:08.338Z,96364.12
2019-03-18T02:19:15.535Z,96371.36
2019-03-18T02:20:22.745Z,96367.44
2019-03-18T02:21:29.942Z,96375.52
2019-03-18T02:22:37.121Z,96376.70
2019-03-18T02:23:44.333Z,96380.09
2019-03-18T02:24:51.513Z,96379.64
2019-03-18T02:25:58.784Z,96374.51
2019-03-18T02:27:06.009Z,96379.56
2019-03-18T02:28:13.178Z,96370.59
2019-03-18T02:29:20.359Z,96372.25
2019-03-18T02:30:27.602Z,96369.23
2019-03-18T02:31:34.795Z,96365.84
2019-03-18T02:32:42.031Z,96372.25
2019-03-18T02:33:49.306Z,96367.95
2019-03-18T02:34:56.499Z,96372.63
2019-03-18T02:36:03.771Z,96374.36
2019-03-18T02:37:10.967Z,96382.05
2019-03-18T02:38:18.162Z,96373.08
2019-03-18T02:39:25.390Z,96369.76
2019-03-18T02:40:34.068Z,96367.65
2019-03-18T02:41:41.263Z,96366.74
2019-03-18T02:42:48.489Z,96380.47
2019-03-18T02:43:56.634Z,96375.79
2019-03-18T02:45:03.856Z,96374.96
2019-03-18T02:46:11.275Z,96383.03
2019-03-18T02:47:19.587Z,96373.68
2019-03-18T02:48:26.781Z,96369.83
2019-03-18T02:49:33.992Z,96364.25
2019-03-18T02:50:41.184Z,96358.74
2019-03-18T02:51:48.419Z,96359.13
2019-03-18T02:52:55.622Z,96352.26
2019-03-18T02:54:02.829Z,96358.14
2019-03-18T02:55:10.151Z,96350.00
2019-03-18T02:56:17.345Z,96343.13
2019-03-18T02:57:24.536Z,96352.94
2019-03-18T02:58:31.755Z,96351.73
2019-03-18T02:59:40.043Z,96356.41
2019-03-18T03:00:47.237Z,96359.50
2019-03-18T03:01:55.956Z,96370.66
2019-03-18T03:03:03.140Z,96373.68
2019-03-18T03:04:10.362Z,96375.52
2019-03-18T03:05:17.564Z,96379.89
2019-03-18T03:06:24.774Z,96385.02
2019-03-18T03:07:32.177Z,96387.20
2019-03-18T03:08:39.403Z,96385.54
2019-03-18T03:09:47.665Z,96388.94
2019-03-18T03:10:55.087Z,96391.12
2019-03-18T03:12:02.264Z,96386.44
2019-03-18T03:13:09.595Z,96383.88
2019-03-18T03:14:16.874Z,96379.65
2019-03-18T03:15:24.065Z,96383.88
2019-03-18T03:16:31.289Z,96387.72
2019-03-18T03:17:39.641Z,96388.48
2019-03-18T03:18:46.831Z,96391.95
2019-03-18T03:19:54.046Z,96388.10
2019-03-18T03:21:01.332Z,96391.57
2019-03-18T03:22:08.565Z,96385.09
2019-03-18T03:23:15.766Z,96394.06
2019-03-18T03:24:22.975Z,96396.17
2019-03-18T03:25:30.202Z,96397.00
2019-03-18T03:26:37.410Z,96396.55
2019-03-18T03:27:44.641Z,96396.10
2019-03-18T03:28:51.834Z,96387.51
2019-03-18T03:29:59.031Z,96389.63
2019-03-18T03:31:06.253Z,96388.72
2019-03-18T03:32:13.450Z,96388.23
2019-03-18T03:33:20.705Z,96391.56
2019-03-18T03:34:29.524Z,96391.56
2019-03-18T03:35:36.714Z,96387.71
2019-03-18T03:36:43.951Z,96383.86
2019-03-18T03:37:51.127Z,96378.66
2019-03-18T03:38:58.301Z,96381.16
2019-03-18T03:40:06.216Z,96386.28
2019-03-18T03:41:17.528Z,96382.81
2019-03-18T03:42:22.365Z,96381.91
2019-03-18T03:43:29.564Z,96390.89
2019-03-18T03:44:36.763Z,96390.44
2019-03-18T03:45:43.952Z,96395.50
2019-03-18T03:46:51.167Z,96390.74
2019-03-18T03:47:58.327Z,96394.14
2019-03-18T03:49:05.545Z,96400.48
2019-03-18T03:50:13.454Z,96396.98
2019-03-18T03:51:20.741Z,96400.00
2019-03-18T03:52:27.951Z,96402.56
2019-03-18T03:53:35.147Z,96400.00
2019-03-18T03:54:42.329Z,96394.87
2019-03-18T03:55:49.739Z,96402.48
2019-03-18T03:56:56.912Z,96396.08
2019-03-18T03:58:04.138Z,96392.61
2019-03-18T03:59:11.319Z,96395.94
2019-03-18T04:00:18.498Z,96398.88
2019-03-18T04:01:29.268Z,96400.61
2019-03-18T04:02:34.629Z,96397.14
2019-03-18T04:03:41.845Z,96401.82
2019-03-18T04:04:49.143Z,96405.22
2019-03-18T04:05:56.548Z,96408.99
2019-03-18T04:07:03.885Z,96405.52
2019-03-18T04:08:11.208Z,96409.75
2019-03-18T04:09:18.746Z,96406.17
2019-03-18T04:10:25.929Z,96408.67
2019-03-18T04:11:33.122Z,96405.13
2019-03-18T04:12:40.350Z,96410.19
2019-03-18T04:13:47.636Z,96412.67
2019-03-18T04:14:54.852Z,96409.20
2019-03-18T04:16:02.044Z,96410.48
2019-03-18T04:17:09.237Z,96412.60
2019-03-18T04:18:16.462Z,96410.11
2019-03-18T04:19:23.613Z,96416.07
2019-03-18T04:20:30.838Z,96416.91
2019-03-18T04:21:38.035Z,96417.81
2019-03-18T04:22:45.254Z,96420.38
2019-03-18T04:23:52.427Z,96412.23
2019-03-18T04:24:59.639Z,96413.44
2019-03-18T04:26:06.849Z,96411.63
2019-03-18T04:27:14.045Z,96409.41
2019-03-18T04:28:21.242Z,96413.63
2019-03-18T04:29:29.517Z,96410.61
2019-03-18T04:30:36.771Z,96405.86
2019-03-18T04:31:43.979Z,96405.41
2019-03-18T04:32:51.206Z,96410.09
2019-03-18T04:33:58.430Z,96405.41
2019-03-18T04:35:06.301Z,96413.03
2019-03-18T04:36:13.511Z,96414.70
2019-03-18T04:37:20.723Z,96415.53
2019-03-18T04:38:27.976Z,96418.92
2019-03-18T04:39:35.129Z,96424.96
2019-03-18T04:40:42.326Z,96422.92
2019-03-18T04:41:49.521Z,96428.58
2019-03-18T04:42:56.715Z,96429.59
2019-03-18T04:44:03.991Z,96433.96
2019-03-18T04:45:11.249Z,96438.86
2019-03-18T04:46:18.452Z,96438.17
2019-03-18T04:47:25.647Z,96440.46
2019-03-18T04:48:32.873Z,96435.02
2019-03-18T04:49:40.083Z,96441.52
2019-03-18T04:50:47.324Z,96442.80
2019-03-18T04:51:54.551Z,96442.34
2019-03-18T04:53:01.745Z,96444.91
2019-03-18T04:54:08.971Z,96445.29
2019-03-18T04:55:16.185Z,96449.97
2019-03-18T04:56:23.376Z,96445.59
2019-03-18T04:57:30.558Z,96445.94
2019-03-18T04:58:37.770Z,96443.30
2019-03-18T04:59:44.952Z,96444.59
2019-03-18T05:00:52.178Z,96442.02
2019-03-18T05:01:59.385Z,96437.72
2019-03-18T05:03:06.611Z,96444.14
2019-03-18T05:04:13.841Z,96442.33
2019-03-18T05:05:21.260Z,96446.56
2019-03-18T05:06:28.468Z,96448.67
2019-03-18T05:07:35.711Z,96447.84
2019-03-18T05:08:42.890Z,96443.61
2019-03-18T05:09:50.117Z,96449.58
2019-03-18T05:10:57.346Z,96442.33
2019-03-18T05:12:04.553Z,96446.18
2019-03-18T05:13:11.750Z,96443.99
2019-03-18T05:14:18.957Z,96446.56
2019-03-18T05:15:26.182Z,96439.31
2019-03-18T05:16:33.407Z,96447.84
2019-03-18T05:17:40.603Z,96441.42
2019-03-18T05:18:47.830Z,96440.97
2019-03-18T05:19:55.030Z,96442.64
2019-03-18T05:21:02.235Z,96448.15
2019-03-18T05:22:09.447Z,96453.73
2019-03-18T05:23:16.672Z,96457.58
2019-03-18T05:24:23.867Z,96456.37
2019-03-18T05:25:31.062Z,96458.11
2019-03-18T05:26:38.305Z,96460.44
2019-03-18T05:27:45.474Z,96454.20
2019-03-18T05:28:52.667Z,96460.30
2019-03-18T05:29:59.860Z,96453.20
2019-03-18T05:31:07.093Z,96455.91
2019-03-18T05:32:14.331Z,96460.76
2019-03-18T05:33:21.542Z,96453.13
2019-03-18T05:34:28.768Z,96455.02
2019-03-18T05:35:35.967Z,96455.98
2019-03-18T05:36:43.160Z,96456.50
2019-03-18T05:37:50.355Z,96460.04
2019-03-18T05:38:57.552Z,96455.91
2019-03-18T05:40:04.931Z,96459.91
2019-03-18T05:41:13.193Z,96454.91
2019-03-18T05:42:20.430Z,96458.38
2019-03-18T05:43:28.135Z,96464.03
2019-03-18T05:44:35.346Z,96463.65
2019-03-18T05:45:42.543Z,96464.93
2019-03-18T05:46:49.739Z,96463.65
2019-03-18T05:47:56.950Z,96466.69
2019-03-18T05:49:04.190Z,96467.88
2019-03-18T05:50:11.446Z,96468.70
2019-03-18T05:51:18.643Z,96470.82
2019-03-18T05:52:25.853Z,96467.73
2019-03-18T05:53:33.050Z,96469.78
2019-03-18T05:54:40.275Z,96471.06
2019-03-18T05:55:47.493Z,96482.46
2019-03-18T05:56:54.712Z,96474.77
2019-03-18T05:58:01.912Z,96479.83
2019-03-18T05:59:09.111Z,96479.28
2019-03-18T06:00:16.527Z,96479.59
2019-03-18T06:01:23.736Z,96484.20
2019-03-18T06:02:31.052Z,96478.61
2019-03-18T06:03:38.249Z,96481.56
2019-03-18T06:04:45.461Z,96486.24
2019-03-18T06:05:52.670Z,96486.69
2019-03-18T06:06:59.897Z,96484.58
2019-03-18T06:08:07.123Z,96487.14
2019-03-18T06:09:14.333Z,96483.30
2019-03-18T06:10:21.532Z,96485.86
2019-03-18T06:11:28.806Z,96490.16
2019-03-18T06:12:36.090Z,96490.61
2019-03-18T06:13:43.296Z,96490.67
2019-03-18T06:14:50.482Z,96487.73
2019-03-18T06:15:57.690Z,96488.25
2019-03-18T06:17:04.917Z,96494.21
2019-03-18T06:18:12.142Z,96496.05
2019-03-18T06:19:19.368Z,96497.33
2019-03-18T06:20:26.549Z,96497.40
2019-03-18T06:21:33.732Z,96498.68
2019-03-18T06:22:42.009Z,96498.23
2019-03-18T06:23:49.683Z,96494.83
2019-03-18T06:24:56.925Z,96495.59
2019-03-18T06:26:04.123Z,96493.86
2019-03-18T06:27:11.331Z,96497.23
2019-03-18T06:28:18.543Z,96500.63
2019-03-18T06:29:27.477Z,96492.03
2019-03-18T06:30:35.247Z,96493.69
2019-03-18T06:31:42.561Z,96494.98
2019-03-18T06:32:49.774Z,96494.91
2019-03-18T06:33:56.972Z,96490.61
2019-03-18T06:35:04.361Z,96496.95
2019-03-18T06:36:11.648Z,96493.03
2019-03-18T06:37:18.862Z,96498.16
2019-03-18T06:38:26.079Z,96494.70
2019-03-18T06:39:33.326Z,96494.70
2019-03-18T06:40:40.507Z,96486.55
2019-03-18T06:41:47.735Z,96492.44
2019-03-18T06:42:54.933Z,96497.95
2019-03-18T06:44:02.160Z,96495.73
2019-03-18T06:45:10.059Z,96501.70
2019-03-18T06:46:17.266Z,96501.70
2019-03-18T06:47:24.492Z,96497.85
2019-03-18T06:48:33.207Z,96503.81
2019-03-18T06:49:40.385Z,96489.33
2019-03-18T06:50:47.596Z,96494.91
2019-03-18T06:51:54.809Z,96488.88
2019-03-18T06:53:02.019Z,96494.00
2019-03-18T06:54:09.244Z,96495.67
2019-03-18T06:55:16.440Z,96494.45
2019-03-18T06:56:23.641Z,96498.69
2019-03-18T06:57:30.848Z,96498.75
2019-03-18T06:58:38.046Z,96505.17
2019-03-18T06:59:45.310Z,96506.00
2019-03-18T07:00:52.526Z,96499.97
2019-03-18T07:01:59.726Z,96502.46
2019-03-18T07:03:08.261Z,96505.86
2019-03-18T07:04:15.465Z,96506.76
2019-03-18T07:05:22.706Z,96505.86
2019-03-18T07:06:29.917Z,96501.04
2019-03-18T07:07:37.173Z,96500.14
2019-03-18T07:08:44.400Z,96501.73
2019-03-18T07:09:51.611Z,96501.20
2019-03-18T07:10:58.810Z,96502.77
2019-03-18T07:12:06.034Z,96504.44
2019-03-18T07:13:13.337Z,96506.03
2019-03-18T07:14:20.546Z,96504.22
2019-03-18T07:15:27.773Z,96508.38
2019-03-18T07:16:35.028Z,96509.14
2019-03-18T07:17:42.252Z,96517.11
2019-03-18T07:18:49.466Z,96509.34
2019-03-18T07:19:56.679Z,96511.39
2019-03-18T07:21:03.859Z,96512.59
2019-03-18T07:22:11.072Z,96512.00
2019-03-18T07:23:18.280Z,96517.52
2019-03-18T07:24:25.507Z,96523.76
2019-03-18T07:25:33.797Z,96532.15
2019-03-18T07:26:42.883Z,96531.63
2019-03-18T07:27:50.379Z,96525.59
2019-03-18T07:28:57.576Z,96527.63
2019-03-18T07:30:05.342Z,96528.01
2019-03-18T07:31:12.613Z,96530.02
2019-03-18T07:32:19.764Z,96533.34
2019-03-18T07:33:28.100Z,96537.50
2019-03-18T07:34:35.307Z,96542.64
2019-03-18T07:35:42.552Z,96538.27
2019-03-18T07:36:49.749Z,96540.31
2019-03-18T07:37:56.930Z,96540.69
2019-03-18T07:39:05.632Z,96536.77
2019-03-18T07:40:13.767Z,96535.02
2019-03-18T07:41:21.835Z,96539.68
2019-03-18T07:42:29.344Z,96537.94
2019-03-18T07:43:36.992Z,96541.72
2019-03-18T07:44:44.193Z,96541.64
2019-03-18T07:45:51.564Z,96551.39
2019-03-18T07:46:58.820Z,96540.67
2019-03-18T07:48:06.696Z,96546.64
2019-03-18T07:49:14.023Z,96547.02
2019-03-18T07:50:21.264Z,96551.25
2019-03-18T07:51:28.508Z,96549.13
2019-03-18T07:52:35.731Z,96544.30
2019-03-18T07:53:42.942Z,96556.23
2019-03-18T07:54:50.798Z,96554.50
2019-03-18T07:55:57.982Z,96551.94
2019-03-18T07:57:05.209Z,96556.69
2019-03-18T07:58:12.432Z,96560.09
2019-03-18T07:59:19.824Z,96555.48
2019-03-18T08:00:27.050Z,96560.16
2019-03-18T08:01:34.263Z,96564.47
2019-03-18T08:02:41.506Z,96561.06
2019-03-18T08:03:48.892Z,96561.90
2019-03-18T08:04:56.089Z,96559.33
2019-03-18T08:06:03.304Z,96568.32
2019-03-18T08:07:10.512Z,96559.78
2019-03-18T08:08:18.844Z,96566.66
2019-03-18T08:09:26.125Z,96568.39
2019-03-18T08:10:33.360Z,96574.81
2019-03-18T08:11:40.556Z,96571.34
2019-03-18T08:12:48.267Z,96578.21
2019-03-18T08:13:56.570Z,96584.19
2019-03-18T08:15:03.946Z,96588.48
2019-03-18T08:16:11.157Z,96585.92
2019-03-18T08:17:18.413Z,96590.15
2019-03-18T08:18:25.609Z,96588.48
2019-03-18T08:19:32.805Z,96592.79
2019-03-18T08:20:41.181Z,96594.08
2019-03-18T08:21:48.385Z,96602.30
2019-03-18T08:22:55.923Z,96600.71
2019-03-18T08:24:03.122Z,96603.80
2019-03-18T08:25:10.499Z,96606.92
2019-03-18T08:26:18.160Z,96618.23
2019-03-18T08:27:25.388Z,96608.63
2019-03-18T08:28:32.597Z,96612.28
2019-03-18T08:29:39.793Z,96620.64
2019-03-18T08:30:47.052Z,96616.16
2019-03-18T08:31:54.261Z,96617.23
2019-03-18T08:33:01.455Z,96613.98
2019-03-18T08:34:08.681Z,96612.00
2019-03-18T08:35:15.879Z,96612.97
2019-03-18T08:36:23.059Z,96608.45
2019-03-18T08:37:30.246Z,96607.31
2019-03-18T08:38:37.451Z,96611.16
2019-03-18T08:39:44.692Z,96607.83
2019-03-18T08:40:51.919Z,96607.00
2019-03-18T08:41:59.159Z,96604.81
2019-03-18T08:43:06.400Z,96614.17
2019-03-18T08:44:13.583Z,96621.80
2019-03-18T08:45:20.807Z,96620.91
2019-03-18T08:46:28.004Z,96622.12
2019-03-18T08:47:35.215Z,96624.23
2019-03-18T08:48:42.397Z,96617.27
2019-03-18T08:49:50.568Z,96622.78
2019-03-18T08:50:57.829Z,96622.27
2019-03-18T08:52:06.025Z,96623.92
2019-03-18T08:53:13.250Z,96625.14
2019-03-18T08:54:20.836Z,96623.79
2019-03-18T08:55:28.242Z,96624.63
2019-03-18T08:56:35.472Z,96625.84
2019-03-18T08:57:42.700Z,96626.22
2019-03-18T08:58:49.892Z,96636.03
2019-03-18T08:59:57.119Z,96635.14
2019-03-18T09:01:04.374Z,96636.31
2019-03-18T09:02:11.662Z,96632.33
2019-03-18T09:03:18.931Z,96634.89
2019-03-18T09:04:26.160Z,96639.13
2019-03-18T09:05:33.368Z,96630.59
2019-03-18T09:06:40.565Z,96639.13
2019-03-18T09:07:47.838Z,96650.16
2019-03-18T09:08:55.137Z,96643.67
2019-03-18T09:10:02.335Z,96646.55
2019-03-18T09:11:09.622Z,96654.19
2019-03-18T09:12:16.849Z,96662.23
2019-03-18T09:13:24.055Z,96660.05
2019-03-18T09:14:31.280Z,96657.03
2019-03-18T09:15:38.478Z,96653.56
2019-03-18T09:16:46.784Z,96658.70
2019-03-18T09:17:53.967Z,96659.15
2019-03-18T09:19:08.558Z,96657.80
2019-03-18T09:20:10.817Z,96656.13
2019-03-18T09:21:18.044Z,96656.20
2019-03-18T09:22:25.269Z,96660.50
2019-03-18T09:23:32.481Z,96664.35
2019-03-18T09:24:39.677Z,96661.41
2019-03-18T09:25:46.911Z,96661.41
2019-03-18T09:27:02.261Z,96661.05
2019-03-18T09:28:06.367Z,96658.48
2019-03-18T09:29:13.563Z,96659.84
2019-03-18T09:30:20.895Z,96661.58
2019-03-18T09:31:28.241Z,96661.19
2019-03-18T09:32:35.499Z,96657.48
2019-03-18T09:33:42.739Z,96658.31
2019-03-18T09:34:49.919Z,96660.12
2019-03-18T09:35:57.175Z,96663.58
2019-03-18T09:37:04.388Z,96657.23
2019-03-18T09:38:11.582Z,96661.53
2019-03-18T09:39:18.958Z,96659.97
2019-03-18T09:40:29.146Z,96663.05
2019-03-18T09:41:35.107Z,96654.52
2019-03-18T09:42:42.302Z,96654.07
2019-03-18T09:43:49.573Z,96651.50
2019-03-18T09:44:56.784Z,96653.17
2019-03-18T09:46:05.199Z,96646.75
2019-03-18T09:47:12.452Z,96655.22
2019-03-18T09:48:19.663Z,96661.08
2019-03-18T09:49:26.875Z,96668.34
2019-03-18T09:50:34.089Z,96664.80
2019-03-18T09:51:41.372Z,96662.16
2019-03-18T09:52:48.582Z,96662.86
2019-03-18T09:53:57.144Z,96665.73
2019-03-18T09:55:04.488Z,96657.80
2019-03-18T09:56:11.716Z,96666.20
2019-03-18T09:57:25.783Z,96661.65
2019-03-18T09:58:28.944Z,96666.20
2019-03-18T09:59:36.170Z,96670.22
2019-03-18T10:00:43.381Z,96671.36
2019-03-18T10:01:50.608Z,96676.70
2019-03-18T10:02:57.788Z,96683.89
2019-03-18T10:04:04.986Z,96679.06
2019-03-18T10:05:12.170Z,96677.26
2019-03-18T10:06:19.467Z,96680.11
2019-03-18T10:07:26.753Z,96669.31
2019-03-18T10:08:33.964Z,96673.99
2019-03-18T10:09:41.163Z,96672.19
2019-03-18T10:10:48.731Z,96676.42
2019-03-18T10:11:55.943Z,96683.61
2019-03-18T10:13:03.139Z,96681.73
2019-03-18T10:14:10.413Z,96674.67
2019-03-18T10:15:17.652Z,96684.81
2019-03-18T10:16:24.878Z,96686.86
2019-03-18T10:17:33.127Z,96684.52
2019-03-18T10:18:40.320Z,96679.59
2019-03-18T10:19:47.681Z,96689.19
2019-03-18T10:20:54.897Z,96687.69
2019-03-18T10:22:02.103Z,96666.45
2019-03-18T10:23:09.298Z,96670.92
2019-03-18T10:24:16.540Z,96664.69
2019-03-18T10:25:24.559Z,96677.25
2019-03-18T10:26:31.729Z,96674.34
2019-03-18T10:27:38.959Z,96672.84
2019-03-18T10:28:46.151Z,96677.23
2019-03-18T10:29:53.375Z,96671.30
2019-03-18T10:31:00.571Z,96667.85
2019-03-18T10:32:07.808Z,96670.87
2019-03-18T10:33:14.962Z,96663.94
2019-03-18T10:34:22.158Z,96665.19
2019-03-18T10:35:29.386Z,96671.14
2019-03-18T10:36:36.642Z,96667.69
2019-03-18T10:37:43.917Z,96661.58
2019-03-18T10:38:52.757Z,96657.20
2019-03-18T10:40:00.149Z,96662.32
2019-03-18T10:41:07.554Z,96663.25
2019-03-18T10:42:14.766Z,96659.44
2019-03-18T10:43:21.980Z,96672.88
2019-03-18T10:44:30.837Z,96673.91
2019-03-18T10:45:38.031Z,96668.06
2019-03-18T10:46:45.260Z,96679.29
2019-03-18T10:47:54.762Z,96668.73
2019-03-18T10:49:01.377Z,96673.09
2019-03-18T10:50:09.652Z,96683.08
2019-03-18T10:51:16.847Z,96680.22
2019-03-18T10:52:24.094Z,96673.44
2019-03-18T10:53:31.300Z,96672.98
2019-03-18T10:54:38.491Z,96674.75
2019-03-18T10:55:45.678Z,96682.41
2019-03-18T10:56:52.931Z,96683.35
2019-03-18T10:58:00.323Z,96686.10
2019-03-18T10:59:07.535Z,96676.90
2019-03-18T11:00:14.914Z,96683.17
2019-03-18T11:01:22.149Z,96694.23
2019-03-18T11:02:29.390Z,96695.44
2019-03-18T11:03:38.862Z,96689.33
2019-03-18T11:04:45.507Z,96693.20
2019-03-18T11:05:52.735Z,96695.07
2019-03-18T11:06:59.931Z,96695.07
2019-03-18T11:08:07.141Z,96694.23
2019-03-18T11:09:14.366Z,96694.23
2019-03-18T11:10:21.609Z,96698.56
2019-03-18T11:11:28.803Z,96695.70
2019-03-18T11:12:36.074Z,96701.78
2019-03-18T11:13:43.287Z,96710.98
2019-03-18T11:14:51.470Z,96714.94
2019-03-18T11:15:58.696Z,96701.78
2019-03-18T11:17:06.104Z,96707.40
2019-03-18T11:18:13.338Z,96701.58
2019-03-18T11:19:20.525Z,96699.00
2019-03-18T11:20:27.753Z,96711.44
2019-03-18T11:21:34.960Z,96703.41
2019-03-18T11:22:42.235Z,96711.61
2019-03-18T11:23:49.444Z,96706.16
2019-03-18T11:24:57.704Z,96710.12
2019-03-18T11:26:04.899Z,96709.11
2019-03-18T11:27:12.128Z,96704.95
2019-03-18T11:28:19.341Z,96711.11
2019-03-18T11:29:26.706Z,96706.58
2019-03-18T11:30:33.939Z,96713.69
2019-03-18T11:31:41.148Z,96720.22
2019-03-18T11:32:48.359Z,96711.81
2019-03-18T11:33:55.611Z,96711.44
2019-03-18T11:35:02.829Z,96715.13
2019-03-18T11:36:10.037Z,96712.64
2019-03-18T11:37:17.294Z,96714.09
2019-03-18T11:38:24.506Z,96714.17
2019-03-18T11:39:31.701Z,96712.52
2019-03-18T11:40:38.925Z,96708.73
2019-03-18T11:41:46.225Z,96716.46
2019-03-18T11:42:53.424Z,96713.88
2019-03-18T11:44:00.635Z,96713.51
2019-03-18T11:45:09.090Z,96714.50
2019-03-18T11:46:16.299Z,96712.88
2019-03-18T11:47:23.646Z,96711.58
2019-03-18T11:48:30.862Z,96712.04
2019-03-18T11:49:39.790Z,96705.14
2019-03-18T11:50:47.319Z,96708.89
2019-03-18T11:51:54.545Z,96705.48
2019-03-18T11:53:13.842Z,96710.18
2019-03-18T11:54:12.052Z,96710.55
2019-03-18T11:55:19.390Z,96706.61
2019-03-18T11:56:26.604Z,96700.99
2019-03-18T11:57:33.814Z,96702.28
2019-03-18T11:58:41.024Z,96702.20
2019-03-18T11:59:48.272Z,96707.81
2019-03-18T12:00:55.493Z,96701.83
2019-03-18T12:02:02.717Z,96704.86
2019-03-18T12:03:11.089Z,96707.44
2019-03-18T12:04:18.312Z,96704.03
2019-03-18T12:05:25.839Z,96702.45
2019-03-18T12:06:33.053Z,96704.11
2019-03-18T12:07:40.260Z,96699.98
2019-03-18T12:08:47.497Z,96705.22
2019-03-18T12:09:54.711Z,96709.14
2019-03-18T12:11:01.967Z,96709.67
2019-03-18T12:12:09.252Z,96716.66
2019-03-18T12:13:16.473Z,96707.34
2019-03-18T12:14:23.707Z,96715.62
2019-03-18T12:15:31.891Z,96715.35
2019-03-18T12:16:39.134Z,96721.95
2019-03-18T12:17:46.479Z,96712.73
2019-03-18T12:18:53.690Z,96714.17
2019-03-18T12:20:00.934Z,96724.30
2019-03-18T12:21:08.158Z,96712.12
2019-03-18T12:22:15.398Z,96711.45
2019-03-18T12:23:22.629Z,96718.61
2019-03-18T12:24:30.331Z,96718.93
2019-03-18T12:25:37.558Z,96715.71
2019-03-18T12:26:44.784Z,96721.55
2019-03-18T12:27:52.048Z,96719.67
2019-03-18T12:28:59.254Z,96717.81
2019-03-18T12:30:18.225Z,96718.80
2019-03-18T12:31:26.443Z,96713.44
2019-03-18T12:32:33.682Z,96713.17
2019-03-18T12:33:40.930Z,96716.58
2019-03-18T12:34:48.147Z,96714.00
2019-03-18T12:35:55.528Z,96716.58
2019-03-18T12:37:02.790Z,96713.52
2019-03-18T12:38:10.058Z,96711.31
2019-03-18T12:39:17.312Z,96707.45
2019-03-18T12:40:24.551Z,96711.08
2019-03-18T12:41:32.936Z,96707.59
2019-03-18T12:42:40.174Z,96703.20
2019-03-18T12:43:47.385Z,96704.41
2019-03-18T12:44:54.613Z,96700.36
2019-03-18T12:46:01.947Z,96704.59
2019-03-18T12:47:09.225Z,96699.30
2019-03-18T12:48:16.458Z,96693.61
2019-03-18T12:49:23.716Z,96694.28
2019-03-18T12:50:49.239Z,96690.68
2019-03-18T12:51:39.940Z,96696.50
2019-03-18T12:52:47.326Z,96698.55
2019-03-18T12:53:54.586Z,96693.23
2019-03-18T12:55:01.814Z,96696.10
2019-03-18T12:56:09.054Z,96695.53
2019-03-18T12:57:16.249Z,96695.75
2019-03-18T12:58:23.460Z,96700.73
2019-03-18T12:59:31.089Z,96700.50
2019-03-18T13:00:38.588Z,96701.59
2019-03-18T13:01:45.890Z,96703.55
2019-03-18T13:02:53.178Z,96706.88
2019-03-18T13:04:00.413Z,96700.27
2019-03-18T13:05:08.435Z,96703.94
2019-03-18T13:06:15.709Z,96696.95
2019-03-18T13:07:22.950Z,96702.48
2019-03-18T13:08:30.171Z,96699.74
2019-03-18T13:09:38.598Z,96697.55
2019-03-18T13:10:45.824Z,96698.83
2019-03-18T13:11:53.372Z,96693.17